createdAt,value
2018-06-23T00:00:36.228Z,90.41
2018-06-23T00:01:36.226Z,91.36
2018-06-23T00:02:36.229Z,91.50
2018-06-23T00:03:36.238Z,91.64
2018-06-23T00:04:36.209Z,91.88
2018-06-23T00:05:36.202Z,91.88
2018-06-23T00:06:36.201Z,91.50
2018-06-23T00:07:36.189Z,91.13
2018-06-23T00:08:36.203Z,91.50
2018-06-23T00:09:36.182Z,91.88
2018-06-23T00:10:36.173Z,91.88
2018-06-23T00:11:36.171Z,92.36
2018-06-23T00:12:36.179Z,93.41
2018-06-23T00:13:36.159Z,93.98
2018-06-23T00:14:36.149Z,93.79
2018-06-23T00:15:36.146Z,94.27
2018-06-23T00:16:36.142Z,94.65
2018-06-23T00:17:36.154Z,94.74
2018-06-23T00:18:36.126Z,95.61
2018-06-23T00:19:36.154Z,95.79
2018-06-23T00:20:36.130Z,95.51
2018-06-23T00:21:36.116Z,95.41
2018-06-23T00:22:36.098Z,95.12
2018-06-23T00:23:36.121Z,95.51
2018-06-23T00:24:36.096Z,94.93
2018-06-23T00:25:36.091Z,94.56
2018-06-23T00:26:36.211Z,94.93
2018-06-23T00:27:36.084Z,95.61
2018-06-23T00:28:36.075Z,95.61
2018-06-23T00:29:36.071Z,95.03
2018-06-23T00:30:36.071Z,95.03
2018-06-23T00:31:36.059Z,94.93
2018-06-23T00:32:36.051Z,94.93
2018-06-23T00:33:36.048Z,94.56
2018-06-23T00:34:36.042Z,94.56
2018-06-23T00:35:36.035Z,94.17
2018-06-23T00:36:36.031Z,93.88
2018-06-23T00:37:36.038Z,93.79
2018-06-23T00:38:36.023Z,94.37
2018-06-23T00:39:36.018Z,94.46
2018-06-23T00:40:36.021Z,94.08
2018-06-23T00:41:36.090Z,93.79
2018-06-23T00:42:36.004Z,93.88
2018-06-23T00:43:35.989Z,94.74
2018-06-23T00:44:35.985Z,93.70
2018-06-23T00:45:35.975Z,93.88
2018-06-23T00:46:35.973Z,93.98
2018-06-23T00:47:35.968Z,94.84
2018-06-23T00:48:36.134Z,94.56
2018-06-23T00:49:35.956Z,94.93
2018-06-23T00:50:35.946Z,94.93
2018-06-23T00:51:35.956Z,95.03
2018-06-23T00:52:35.941Z,94.84
2018-06-23T00:53:35.933Z,94.84
2018-06-23T00:54:35.927Z,94.84
2018-06-23T00:55:35.925Z,94.89
2018-06-23T00:56:35.915Z,95.56
2018-06-23T00:57:35.910Z,95.36
2018-06-23T00:58:35.902Z,95.75
2018-06-23T00:59:35.898Z,96.12
2018-06-23T01:00:35.899Z,96.12
2018-06-23T01:01:35.896Z,96.51
2018-06-23T01:02:35.889Z,97.08
2018-06-23T01:03:35.875Z,97.27
2018-06-23T01:04:35.868Z,96.98
2018-06-23T01:05:35.854Z,97.17
2018-06-23T01:06:35.854Z,97.27
2018-06-23T01:07:35.848Z,97.65
2018-06-23T01:08:35.888Z,97.08
2018-06-23T01:09:35.838Z,98.41
2018-06-23T01:10:35.831Z,98.60
2018-06-23T01:11:35.826Z,98.84
2018-06-23T01:12:35.824Z,98.94
2018-06-23T01:13:35.806Z,98.94
2018-06-23T01:14:35.809Z,99.13
2018-06-23T01:15:35.812Z,98.79
2018-06-23T01:16:35.805Z,98.74
2018-06-23T01:17:35.789Z,98.74
2018-06-23T01:18:35.781Z,98.94
2018-06-23T01:19:35.778Z,98.46
2018-06-23T01:20:35.775Z,98.60
2018-06-23T01:21:35.765Z,96.98
2018-06-23T01:22:35.760Z,97.46
2018-06-23T01:23:35.759Z,97.41
2018-06-23T01:24:35.766Z,97.41
2018-06-23T01:25:35.741Z,98.22
2018-06-23T01:26:35.737Z,97.46
2018-06-23T01:27:35.726Z,97.70
2018-06-23T01:28:35.724Z,97.51
2018-06-23T01:29:35.714Z,97.41
2018-06-23T02:03:30.074Z,99.99
2018-06-23T02:04:30.049Z,99.99
2018-06-23T02:06:23.080Z,99.99
2018-06-23T02:07:23.054Z,99.99
2018-06-23T02:09:16.211Z,99.99
2018-06-23T02:10:16.002Z,99.99
2018-06-23T02:11:15.997Z,99.99
2018-06-23T02:12:15.982Z,99.99
2018-06-23T02:13:15.972Z,99.99
2018-06-23T02:14:15.967Z,99.99
2018-06-23T02:15:15.957Z,99.99
2018-06-23T02:16:15.952Z,99.99
2018-06-23T02:17:15.945Z,99.99
2018-06-23T02:18:15.938Z,99.99
2018-06-23T02:19:15.922Z,99.99
2018-06-23T02:20:15.944Z,99.99
2018-06-23T02:21:15.908Z,99.99
2018-06-23T02:22:15.911Z,99.99
2018-06-23T02:23:15.889Z,99.99
2018-06-23T02:24:15.885Z,99.99
2018-06-23T02:25:15.877Z,99.99
2018-06-23T02:26:15.870Z,99.99
2018-06-23T02:27:15.861Z,99.99
2018-06-23T02:28:15.853Z,99.99
2018-06-23T02:29:15.856Z,99.99
2018-06-23T02:30:15.840Z,99.99
2018-06-23T02:31:15.838Z,99.99
2018-06-23T02:32:15.827Z,99.99
2018-06-23T02:33:15.825Z,99.99
2018-06-23T02:34:15.817Z,99.99
2018-06-23T02:35:15.797Z,99.99
2018-06-23T02:36:15.806Z,99.99
2018-06-23T02:37:15.793Z,99.99
2018-06-23T02:38:15.786Z,99.99
2018-06-23T02:39:15.779Z,99.99
2018-06-23T02:40:15.772Z,99.99
2018-06-23T02:41:15.770Z,99.99
2018-06-23T02:42:15.757Z,99.99
2018-06-23T02:43:15.747Z,99.99
2018-06-23T02:44:15.744Z,99.99
2018-06-23T02:45:15.737Z,99.99
2018-06-23T02:46:15.731Z,99.99
2018-06-23T02:47:15.725Z,99.99
2018-06-23T02:48:15.716Z,99.99
2018-06-23T02:49:15.713Z,99.99
2018-06-23T02:50:15.699Z,99.99
2018-06-23T02:51:15.698Z,99.99
2018-06-23T02:52:15.691Z,99.99
2018-06-23T02:53:15.731Z,99.99
2018-06-23T02:54:15.676Z,99.99
2018-06-23T02:55:15.670Z,99.99
2018-06-23T02:56:15.667Z,99.99
2018-06-23T02:57:15.659Z,99.99
2018-06-23T02:58:15.645Z,99.99
2018-06-23T02:59:15.644Z,99.99
2018-06-23T03:00:15.644Z,99.99
2018-06-23T03:01:15.629Z,99.99
2018-06-23T03:02:15.622Z,99.99
2018-06-23T03:03:15.617Z,99.99
2018-06-23T03:04:15.611Z,99.99
2018-06-23T03:05:15.602Z,99.99
2018-06-23T03:06:15.600Z,99.99
2018-06-23T03:07:15.591Z,99.99
2018-06-23T03:08:15.581Z,99.99
2018-06-23T03:09:15.582Z,99.99
2018-06-23T03:10:15.570Z,99.99
2018-06-23T03:11:15.562Z,99.99
2018-06-23T03:12:15.564Z,99.99
2018-06-23T03:13:15.552Z,99.99
2018-06-23T03:14:15.541Z,99.99
2018-06-23T03:15:15.540Z,99.99
2018-06-23T03:16:15.528Z,99.99
2018-06-23T03:17:15.523Z,99.99
2018-06-23T03:18:15.529Z,99.99
2018-06-23T03:19:15.509Z,99.99
2018-06-23T03:20:15.491Z,99.99
2018-06-23T03:21:15.531Z,99.99
2018-06-23T03:22:15.491Z,99.99
2018-06-23T03:23:15.478Z,99.99
2018-06-23T03:24:15.476Z,99.99
2018-06-23T03:25:15.468Z,99.99
2018-06-23T03:26:15.457Z,99.99
2018-06-23T03:27:15.461Z,99.99
2018-06-23T03:28:15.451Z,99.99
2018-06-23T03:29:15.443Z,99.99
2018-06-23T03:30:15.434Z,99.99
2018-06-23T03:31:15.430Z,99.99
2018-06-23T03:32:15.422Z,99.99
2018-06-23T03:33:15.412Z,99.99
2018-06-23T03:34:15.405Z,99.99
2018-06-23T03:35:15.401Z,99.99
2018-06-23T03:36:15.389Z,99.99
2018-06-23T03:37:15.385Z,99.99
2018-06-23T03:38:15.376Z,99.99
2018-06-23T03:39:15.370Z,99.99
2018-06-23T03:40:15.367Z,99.99
2018-06-23T03:41:15.356Z,99.99
2018-06-23T03:42:15.355Z,99.99
2018-06-23T03:43:15.351Z,99.99
2018-06-23T03:44:15.337Z,99.99
2018-06-23T03:45:15.333Z,99.99
2018-06-23T03:46:15.326Z,99.99
2018-06-23T03:47:15.322Z,99.99
2018-06-23T03:48:15.312Z,99.99
2018-06-23T03:49:15.305Z,99.99
2018-06-23T03:50:15.295Z,99.99
2018-06-23T03:51:15.313Z,99.99
2018-06-23T03:52:15.288Z,99.99
2018-06-23T03:53:15.283Z,99.99
2018-06-23T03:54:15.278Z,99.99
2018-06-23T03:55:15.264Z,99.99
2018-06-23T03:56:15.261Z,99.99
2018-06-23T03:57:15.250Z,99.99
2018-06-23T03:58:15.249Z,99.99
2018-06-23T03:59:15.244Z,99.99
2018-06-23T04:00:15.238Z,99.99
2018-06-23T04:01:15.231Z,99.99
2018-06-23T04:02:15.246Z,99.99
2018-06-23T04:03:15.217Z,99.99
2018-06-23T04:04:15.213Z,99.99
2018-06-23T04:05:15.201Z,99.99
2018-06-23T04:06:15.200Z,99.99
2018-06-23T04:07:15.199Z,99.99
2018-06-23T04:08:15.188Z,99.99
2018-06-23T04:09:15.178Z,99.99
2018-06-23T04:10:15.189Z,99.99
2018-06-23T04:11:15.176Z,99.99
2018-06-23T04:12:15.190Z,99.99
2018-06-23T04:13:15.155Z,99.99
2018-06-23T04:14:15.149Z,99.99
2018-06-23T04:15:15.141Z,99.99
2018-06-23T04:16:15.130Z,99.99
2018-06-23T04:17:15.243Z,99.99
2018-06-23T04:18:15.124Z,99.99
2018-06-23T04:19:15.114Z,99.99
2018-06-23T04:20:15.112Z,99.99
2018-06-23T04:21:15.105Z,99.99
2018-06-23T04:22:15.100Z,99.99
2018-06-23T04:23:15.092Z,99.99
2018-06-23T04:24:15.088Z,99.99
2018-06-23T04:25:15.095Z,99.99
2018-06-23T04:26:15.073Z,99.99
2018-06-23T04:27:15.065Z,99.99
2018-06-23T04:28:15.065Z,99.99
2018-06-23T04:29:15.082Z,99.99
2018-06-23T04:30:15.048Z,99.99
2018-06-23T04:31:15.042Z,99.99
2018-06-23T04:32:15.035Z,99.99
2018-06-23T04:33:15.031Z,99.99
2018-06-23T04:34:15.024Z,99.99
2018-06-23T04:35:15.018Z,99.99
2018-06-23T04:36:15.028Z,99.99
2018-06-23T04:37:15.004Z,99.99
2018-06-23T04:38:14.995Z,99.99
2018-06-23T04:39:14.990Z,99.99
2018-06-23T04:40:14.977Z,99.99
2018-06-23T04:41:14.997Z,99.99
2018-06-23T04:42:14.972Z,99.99
2018-06-23T04:43:14.969Z,99.99
2018-06-23T04:44:14.959Z,99.99
2018-06-23T04:45:16.425Z,99.99
2018-06-23T04:46:14.951Z,99.99
2018-06-23T04:47:14.945Z,99.99
2018-06-23T04:48:14.943Z,99.99
2018-06-23T04:49:14.933Z,99.99
2018-06-23T04:50:14.932Z,99.99
2018-06-23T04:51:14.922Z,99.99
2018-06-23T04:52:14.926Z,99.99
2018-06-23T04:53:14.906Z,99.99
2018-06-23T04:54:14.909Z,99.99
2018-06-23T04:55:14.899Z,99.99
2018-06-23T04:56:14.897Z,99.99
2018-06-23T04:57:14.892Z,99.99
2018-06-23T04:58:14.907Z,99.99
2018-06-23T04:59:14.882Z,99.99
2018-06-23T05:00:14.878Z,99.99
2018-06-23T05:01:14.872Z,99.99
2018-06-23T05:02:14.866Z,99.99
2018-06-23T05:03:14.860Z,99.99
2018-06-23T05:04:14.857Z,99.99
2018-06-23T05:05:14.855Z,99.99
2018-06-23T05:06:14.855Z,99.99
2018-06-23T05:07:14.846Z,99.99
2018-06-23T05:08:14.841Z,99.99
2018-06-23T05:09:14.837Z,99.99
2018-06-23T05:10:14.829Z,99.99
2018-06-23T05:11:14.827Z,99.99
2018-06-23T05:12:14.825Z,99.99
2018-06-23T05:13:14.816Z,99.99
2018-06-23T05:14:14.815Z,99.99
2018-06-23T05:15:14.809Z,99.99
2018-06-23T05:16:14.821Z,99.04
2018-06-23T05:17:14.802Z,98.47
2018-06-23T05:18:14.797Z,98.08
2018-06-23T05:19:14.799Z,99.37
2018-06-23T05:20:14.811Z,97.61
2018-06-23T05:21:14.781Z,97.32
2018-06-23T05:22:14.822Z,97.47
2018-06-23T05:23:14.826Z,96.89
2018-06-23T05:24:14.797Z,97.61
2018-06-23T05:25:14.772Z,96.66
2018-06-23T05:26:14.766Z,97.42
2018-06-23T05:27:14.765Z,97.42
2018-06-23T05:28:14.761Z,97.99
2018-06-23T05:29:14.752Z,98.37
2018-06-23T05:30:14.754Z,98.66
2018-06-23T05:31:14.745Z,97.51
2018-06-23T05:32:14.757Z,98.56
2018-06-23T05:33:14.738Z,97.27
2018-06-23T05:34:14.737Z,97.37
2018-06-23T05:35:14.745Z,97.75
2018-06-23T05:36:14.718Z,97.56
2018-06-23T05:37:14.726Z,96.89
2018-06-23T05:38:14.719Z,96.80
2018-06-23T05:39:14.800Z,96.08
2018-06-23T05:40:14.711Z,96.98
2018-06-23T05:41:14.712Z,96.13
2018-06-23T05:42:14.736Z,96.51
2018-06-23T05:43:14.706Z,95.84
2018-06-23T05:44:14.702Z,96.70
2018-06-23T05:45:14.813Z,95.75
2018-06-23T05:46:14.693Z,95.84
2018-06-23T05:47:14.717Z,95.94
2018-06-23T05:48:14.696Z,96.89
2018-06-23T05:49:14.735Z,94.89
2018-06-23T05:50:14.706Z,94.22
2018-06-23T05:51:14.815Z,94.98
2018-06-23T05:52:14.700Z,94.12
2018-06-23T05:53:14.695Z,93.65
2018-06-23T05:54:14.690Z,94.22
2018-06-23T05:55:14.683Z,94.12
2018-06-23T05:56:14.688Z,94.70
2018-06-23T05:57:14.698Z,93.36
2018-06-23T05:58:14.703Z,94.03
2018-06-23T05:59:14.723Z,93.41
2018-06-23T06:00:14.672Z,93.31
2018-06-23T06:01:14.738Z,93.60
2018-06-23T06:02:14.726Z,92.55
2018-06-23T06:03:14.734Z,92.45
2018-06-23T06:04:14.696Z,92.64
2018-06-23T06:05:14.661Z,90.54
2018-06-23T06:06:14.638Z,90.64
2018-06-23T06:07:14.647Z,92.45
2018-06-23T06:08:14.653Z,91.69
2018-06-23T06:09:14.658Z,91.69
2018-06-23T06:10:14.623Z,90.45
2018-06-23T06:11:14.680Z,90.92
2018-06-23T06:12:14.611Z,90.35
2018-06-23T06:13:14.614Z,91.69
2018-06-23T06:14:14.616Z,91.21
2018-06-23T06:15:14.619Z,90.83
2018-06-23T06:16:14.583Z,91.21
2018-06-23T06:17:14.581Z,91.02
2018-06-23T06:18:14.578Z,91.78
2018-06-23T06:19:14.573Z,93.45
2018-06-23T06:20:14.583Z,92.59
2018-06-23T06:21:14.572Z,91.59
2018-06-23T06:22:14.566Z,92.50
2018-06-23T06:23:14.610Z,90.11
2018-06-23T06:24:14.560Z,89.06
2018-06-23T06:25:14.570Z,89.10
2018-06-23T06:26:14.555Z,90.16
2018-06-23T06:27:14.547Z,89.10
2018-06-23T06:28:14.545Z,89.87
2018-06-23T06:29:14.543Z,90.25
2018-06-23T06:30:14.545Z,88.05
2018-06-23T06:31:14.557Z,88.24
2018-06-23T06:32:14.534Z,87.29
2018-06-23T06:33:14.534Z,87.38
2018-06-23T06:34:14.527Z,86.33
2018-06-23T06:35:14.527Z,86.33
2018-06-23T06:36:14.528Z,88.48
2018-06-23T06:37:14.520Z,86.94
2018-06-23T06:38:14.513Z,85.51
2018-06-23T06:39:14.513Z,87.33
2018-06-23T06:40:14.512Z,87.81
2018-06-23T06:41:14.509Z,86.47
2018-06-23T06:42:14.505Z,86.47
2018-06-23T06:43:14.503Z,86.47
2018-06-23T06:44:14.504Z,85.94
2018-06-23T06:45:14.524Z,86.08
2018-06-23T06:46:14.499Z,85.94
2018-06-23T06:47:14.490Z,86.28
2018-06-23T06:48:14.487Z,85.80
2018-06-23T06:49:14.485Z,86.37
2018-06-23T06:50:14.481Z,85.22
2018-06-23T06:51:14.479Z,85.32
2018-06-23T06:52:14.478Z,85.08
2018-06-23T06:53:14.474Z,84.75
2018-06-23T06:54:14.468Z,85.75
2018-06-23T06:55:14.479Z,86.04
2018-06-23T06:56:14.469Z,83.73
2018-06-23T06:57:14.503Z,81.38
2018-06-23T06:58:14.485Z,82.63
2018-06-23T06:59:14.465Z,81.96
2018-06-23T07:00:14.448Z,79.99
2018-06-23T07:01:14.453Z,79.70
2018-06-23T07:02:14.451Z,78.64
2018-06-23T07:03:14.445Z,77.92
2018-06-23T07:04:14.484Z,76.77
2018-06-23T07:05:14.445Z,75.33
2018-06-23T07:06:14.441Z,74.76
2018-06-23T07:07:14.445Z,74.26
2018-06-23T07:08:14.444Z,72.75
2018-06-23T07:09:14.565Z,72.37
2018-06-23T07:10:14.447Z,71.41
2018-06-23T07:11:14.455Z,71.51
2018-06-23T07:12:14.587Z,71.06
2018-06-23T07:13:14.501Z,69.87
2018-06-23T07:14:14.569Z,69.20
2018-06-23T07:15:14.483Z,70.87
2018-06-23T07:16:14.462Z,69.56
2018-06-23T07:17:14.463Z,67.93
2018-06-23T07:18:14.546Z,66.10
2018-06-23T07:19:15.056Z,67.68
2018-06-23T07:20:14.487Z,67.61
2018-06-23T07:21:14.520Z,67.90
2018-06-23T07:22:14.559Z,68.51
2018-06-23T07:23:14.543Z,66.81
2018-06-23T07:24:14.613Z,65.88
2018-06-23T07:25:14.536Z,67.76
2018-06-23T07:26:14.550Z,68.85
2018-06-23T07:27:14.560Z,68.08
2018-06-23T07:28:14.578Z,68.57
2018-06-23T07:29:14.563Z,68.89
2018-06-23T07:30:14.584Z,67.45
2018-06-23T07:31:14.579Z,67.54
2018-06-23T07:32:14.603Z,68.80
2018-06-23T07:33:14.679Z,64.86
2018-06-23T07:34:14.624Z,64.73
2018-06-23T07:35:14.706Z,63.12
2018-06-23T07:36:14.615Z,62.90
2018-06-23T07:37:14.631Z,62.06
2018-06-23T07:38:14.632Z,62.83
2018-06-23T07:39:14.639Z,63.95
2018-06-23T07:40:14.653Z,62.99
2018-06-23T07:41:14.671Z,62.99
2018-06-23T07:42:14.682Z,61.78
2018-06-23T07:43:14.861Z,61.46
2018-06-23T07:44:14.777Z,60.65
2018-06-23T07:45:14.712Z,61.94
2018-06-23T07:46:14.734Z,62.29
2018-06-23T07:47:14.731Z,62.16
2018-06-23T07:48:14.757Z,59.78
2018-06-23T07:49:14.880Z,57.89
2018-06-23T07:50:14.775Z,57.53
2018-06-23T07:51:14.831Z,57.01
2018-06-23T07:52:14.838Z,55.94
2018-06-23T07:53:14.918Z,55.78
2018-06-23T07:54:14.846Z,54.07
2018-06-23T07:55:14.865Z,55.98
2018-06-23T07:56:14.962Z,56.27
2018-06-23T07:57:14.889Z,58.62
2018-06-23T07:58:14.884Z,58.78
2018-06-23T07:59:14.894Z,57.75
2018-06-23T08:00:14.879Z,57.81
2018-06-23T08:01:15.065Z,56.81
2018-06-23T08:02:14.916Z,55.46
2018-06-23T08:03:14.921Z,55.05
2018-06-23T08:04:14.970Z,54.14
2018-06-23T08:05:14.959Z,54.10
2018-06-23T08:06:15.026Z,54.66
2018-06-23T08:07:15.007Z,55.63
2018-06-23T08:08:15.051Z,53.83
2018-06-23T08:09:15.047Z,52.40
2018-06-23T08:10:15.052Z,51.65
2018-06-23T08:11:15.038Z,50.28
2018-06-23T08:12:15.103Z,50.48
2018-06-23T08:13:15.100Z,49.39
2018-06-23T08:14:15.062Z,50.43
2018-06-23T08:15:15.131Z,51.78
2018-06-23T08:16:15.127Z,52.89
2018-06-23T08:17:15.227Z,49.29
2018-06-23T08:18:15.256Z,50.18
2018-06-23T08:19:17.184Z,49.70
2018-06-23T08:20:16.234Z,51.56
2018-06-23T08:21:15.201Z,52.59
2018-06-23T08:22:15.976Z,52.59
2018-06-23T08:23:15.418Z,54.24
2018-06-23T08:24:15.291Z,53.59
2018-06-23T08:25:15.227Z,50.02
2018-06-23T08:26:15.240Z,50.31
2018-06-23T08:27:15.271Z,50.35
2018-06-23T08:28:15.272Z,50.91
2018-06-23T08:29:15.269Z,50.38
2018-06-23T08:30:15.293Z,51.78
2018-06-23T08:31:15.353Z,53.20
2018-06-23T08:32:15.361Z,53.41
2018-06-23T08:33:15.355Z,56.63
2018-06-23T08:34:15.346Z,54.54
2018-06-23T08:35:15.356Z,54.14
2018-06-23T08:36:15.377Z,52.55
2018-06-23T08:37:15.385Z,51.90
2018-06-23T08:38:15.408Z,51.66
2018-06-23T08:39:15.413Z,50.13
2018-06-23T08:40:15.430Z,49.27
2018-06-23T08:41:15.445Z,51.03
2018-06-23T08:42:15.457Z,53.11
2018-06-23T08:43:15.474Z,52.25
2018-06-23T08:44:15.489Z,54.11
2018-06-23T08:45:15.497Z,51.46
2018-06-23T08:46:15.508Z,52.89
2018-06-23T08:47:15.534Z,52.45
2018-06-23T08:48:15.548Z,48.25
2018-06-23T08:49:15.650Z,49.60
2018-06-23T08:50:15.618Z,50.18
2018-06-23T08:51:15.614Z,50.35
2018-06-23T08:52:15.642Z,51.68
2018-06-23T08:53:15.666Z,49.65
2018-06-23T08:54:15.676Z,48.57
2018-06-23T08:55:15.693Z,49.37
2018-06-23T08:56:15.680Z,48.97
2018-06-23T08:57:15.738Z,47.77
2018-06-23T08:58:15.970Z,48.20
2018-06-23T08:59:16.663Z,44.68
2018-06-23T09:00:16.976Z,44.85
2018-06-23T09:01:17.350Z,44.51
2018-06-23T09:02:17.182Z,47.40
2018-06-23T09:03:16.698Z,47.24
2018-06-23T09:04:16.735Z,47.96
2018-06-23T09:05:15.925Z,48.44
2018-06-23T09:06:15.852Z,50.23
2018-06-23T09:07:15.857Z,53.19
2018-06-23T09:08:15.871Z,54.58
2018-06-23T09:09:15.891Z,54.87
2018-06-23T09:10:15.917Z,54.71
2018-06-23T09:11:15.961Z,55.22
2018-06-23T09:12:16.005Z,53.25
2018-06-23T09:13:15.971Z,51.15
2018-06-23T09:14:15.992Z,50.13
2018-06-23T09:15:16.014Z,48.69
2018-06-23T09:16:16.004Z,48.10
2018-06-23T09:17:16.017Z,43.88
2018-06-23T09:18:16.038Z,43.95
2018-06-23T09:19:16.045Z,43.34
2018-06-23T09:20:16.075Z,40.37
2018-06-23T09:21:16.092Z,40.23
2018-06-23T09:22:16.084Z,40.59
2018-06-23T09:23:16.077Z,39.62
2018-06-23T09:24:16.093Z,39.08
2018-06-23T09:25:16.180Z,37.96
2018-06-23T09:26:16.580Z,38.13
2018-06-23T09:27:17.430Z,40.54
2018-06-23T09:28:17.708Z,40.58
2018-06-23T09:29:17.713Z,40.77
2018-06-23T09:30:17.082Z,39.76
2018-06-23T09:31:17.227Z,39.31
2018-06-23T09:32:17.097Z,37.48
2018-06-23T09:33:17.783Z,38.71
2018-06-23T09:34:17.051Z,42.51
2018-06-23T09:35:18.332Z,44.31
2018-06-23T09:36:16.295Z,45.66
2018-06-23T09:37:16.296Z,45.57
2018-06-23T09:38:16.324Z,46.63
2018-06-23T09:39:16.348Z,45.78
2018-06-23T09:40:16.367Z,45.22
2018-06-23T09:41:16.382Z,45.39
2018-06-23T09:42:16.397Z,45.20
2018-06-23T09:43:16.413Z,46.10
2018-06-23T09:44:16.431Z,47.24
2018-06-23T09:45:16.440Z,46.92
2018-06-23T09:46:16.473Z,46.36
2018-06-23T09:47:16.480Z,46.92
2018-06-23T09:48:16.504Z,49.22
2018-06-23T09:49:16.552Z,48.18
2018-06-23T09:50:16.545Z,46.51
2018-06-23T09:51:16.560Z,47.26
2018-06-23T09:52:16.578Z,45.40
2018-06-23T09:53:16.594Z,46.59
2018-06-23T09:54:16.609Z,49.96
2018-06-23T09:55:16.622Z,49.73
2018-06-23T09:56:16.644Z,46.34
2018-06-23T09:57:16.658Z,45.71
2018-06-23T09:58:16.672Z,46.42
2018-06-23T09:59:16.697Z,47.99
2018-06-23T10:00:16.707Z,45.32
2018-06-23T10:01:16.725Z,45.18
2018-06-23T10:02:16.739Z,46.92
2018-06-23T10:03:16.795Z,46.90
2018-06-23T10:04:16.772Z,49.15
2018-06-23T10:05:16.790Z,52.63
2018-06-23T10:06:16.794Z,54.14
2018-06-23T10:07:16.819Z,53.66
2018-06-23T10:08:16.832Z,54.34
2018-06-23T10:09:16.860Z,52.61
2018-06-23T10:10:16.847Z,49.44
2018-06-23T10:11:16.858Z,48.66
2018-06-23T10:12:16.867Z,46.58
2018-06-23T10:13:16.887Z,42.72
2018-06-23T10:14:16.893Z,42.03
2018-06-23T10:15:16.906Z,42.92
2018-06-23T10:16:16.920Z,43.47
2018-06-23T10:17:16.933Z,41.96
2018-06-23T10:18:16.954Z,41.08
2018-06-23T10:19:16.959Z,37.57
2018-06-23T10:20:16.973Z,39.53
2018-06-23T10:21:16.990Z,38.27
2018-06-23T10:22:17.002Z,36.54
2018-06-23T10:23:17.020Z,41.05
2018-06-23T10:24:17.046Z,38.95
2018-06-23T10:25:17.053Z,39.98
2018-06-23T10:26:17.069Z,42.77
2018-06-23T10:27:17.113Z,43.64
2018-06-23T10:28:17.103Z,42.65
2018-06-23T10:29:17.118Z,43.24
2018-06-23T10:30:17.133Z,46.51
2018-06-23T10:31:17.184Z,46.44
2018-06-23T10:32:17.175Z,46.75
2018-06-23T10:33:17.189Z,48.95
2018-06-23T10:34:17.204Z,48.93
2018-06-23T10:35:17.225Z,48.13
2018-06-23T10:36:17.237Z,45.64
2018-06-23T10:37:17.253Z,46.22
2018-06-23T10:38:17.268Z,45.86
2018-06-23T10:39:17.309Z,46.80
2018-06-23T10:40:17.290Z,44.33
2018-06-23T10:41:17.329Z,44.26
2018-06-23T10:42:17.334Z,45.78
2018-06-23T10:43:17.353Z,44.88
2018-06-23T10:44:17.359Z,43.04
2018-06-23T10:45:17.375Z,44.31
2018-06-23T10:46:17.431Z,47.16
2018-06-23T10:47:17.403Z,49.27
2018-06-23T10:48:17.422Z,46.94
2018-06-23T10:49:17.430Z,44.09
2018-06-23T10:50:17.450Z,44.40
2018-06-23T10:51:17.465Z,46.80
2018-06-23T10:52:17.498Z,47.58
2018-06-23T10:53:17.502Z,48.16
2018-06-23T10:54:17.540Z,48.27
2018-06-23T10:55:17.527Z,46.63
2018-06-23T10:56:17.546Z,48.90
2018-06-23T10:57:17.571Z,46.70
2018-06-23T10:58:17.576Z,44.73
2018-06-23T10:59:17.590Z,43.10
2018-06-23T11:00:17.606Z,41.00
2018-06-23T11:01:17.627Z,41.27
2018-06-23T11:02:17.638Z,41.27
2018-06-23T11:03:17.660Z,42.14
2018-06-23T11:04:17.671Z,44.30
2018-06-23T11:05:17.689Z,44.45
2018-06-23T11:06:17.705Z,42.82
2018-06-23T11:07:17.722Z,46.37
2018-06-23T11:08:17.747Z,45.35
2018-06-23T11:09:17.755Z,43.78
2018-06-23T11:10:17.770Z,42.96
2018-06-23T11:11:17.784Z,46.15
2018-06-23T11:12:17.805Z,47.11
2018-06-23T11:13:17.826Z,47.36
2018-06-23T11:14:17.838Z,47.65
2018-06-23T11:15:17.860Z,47.33
2018-06-23T11:16:17.873Z,47.06
2018-06-23T11:17:17.886Z,46.88
2018-06-23T11:18:17.903Z,47.91
2018-06-23T11:19:17.920Z,51.70
2018-06-23T11:20:17.935Z,51.43
2018-06-23T11:21:17.947Z,52.95
2018-06-23T11:22:17.956Z,54.35
2018-06-23T11:23:17.975Z,53.63
2018-06-23T11:24:18.062Z,54.43
2018-06-23T11:25:18.008Z,52.64
2018-06-23T11:26:18.020Z,52.83
2018-06-23T11:27:18.036Z,52.37
2018-06-23T11:28:18.033Z,54.80
2018-06-23T11:29:18.052Z,49.68
2018-06-23T11:30:18.066Z,49.02
2018-06-23T11:31:18.078Z,51.32
2018-06-23T11:32:18.159Z,54.44
2018-06-23T11:33:18.102Z,54.42
2018-06-23T11:34:18.110Z,53.96
2018-06-23T11:35:18.119Z,54.28
2018-06-23T11:36:18.156Z,53.13
2018-06-23T11:37:18.145Z,54.61
2018-06-23T11:38:18.153Z,53.27
2018-06-23T11:39:18.158Z,54.68
2018-06-23T11:40:18.169Z,54.08
2018-06-23T11:41:18.207Z,53.88
2018-06-23T11:42:18.224Z,53.91
2018-06-23T11:43:18.223Z,54.22
2018-06-23T11:44:18.205Z,51.61
2018-06-23T11:45:18.224Z,53.71
2018-06-23T11:46:18.226Z,53.77
2018-06-23T11:47:18.230Z,48.18
2018-06-23T11:48:18.233Z,48.49
2018-06-23T11:49:18.247Z,47.50
2018-06-23T11:50:18.257Z,48.27
2018-06-23T11:51:18.267Z,46.10
2018-06-23T11:52:18.399Z,48.42
2018-06-23T11:53:18.289Z,47.89
2018-06-23T11:54:18.299Z,46.29
2018-06-23T11:55:18.310Z,44.09
2018-06-23T11:56:18.328Z,43.38
2018-06-23T11:57:18.330Z,44.61
2018-06-23T11:58:18.341Z,44.37
2018-06-23T11:59:18.356Z,43.19
2018-06-23T12:00:18.366Z,42.75
2018-06-23T12:01:18.383Z,41.47
2018-06-23T12:02:18.398Z,46.60
2018-06-23T12:03:18.592Z,43.41
2018-06-23T12:04:18.442Z,41.45
2018-06-23T12:05:18.434Z,44.49
2018-06-23T12:06:18.452Z,42.65
2018-06-23T12:07:18.458Z,41.02
2018-06-23T12:08:18.476Z,43.33
2018-06-23T12:09:18.497Z,45.42
2018-06-23T12:10:18.523Z,45.25
2018-06-23T12:11:18.522Z,44.98
2018-06-23T12:12:18.538Z,45.18
2018-06-23T12:13:18.555Z,46.20
2018-06-23T12:14:18.577Z,45.88
2018-06-23T12:15:18.578Z,47.06
2018-06-23T12:16:18.593Z,44.35
2018-06-23T12:17:18.612Z,44.40
2018-06-23T12:18:18.622Z,44.43
2018-06-23T12:19:18.657Z,44.62
2018-06-23T12:20:18.649Z,42.30
2018-06-23T12:21:18.670Z,42.55
2018-06-23T12:22:18.689Z,42.14
2018-06-23T12:23:18.697Z,41.06
2018-06-23T12:24:18.721Z,42.41
2018-06-23T12:25:18.779Z,41.56
2018-06-23T12:26:18.740Z,42.34
2018-06-23T12:27:18.781Z,42.75
2018-06-23T12:28:18.770Z,41.49
2018-06-23T12:29:18.785Z,42.19
2018-06-23T12:30:18.846Z,40.91
2018-06-23T12:31:18.816Z,41.99
2018-06-23T12:32:18.833Z,44.36
2018-06-23T12:33:18.840Z,44.38
2018-06-23T12:34:18.888Z,45.11
2018-06-23T12:35:18.873Z,46.81
2018-06-23T12:36:18.896Z,49.65
2018-06-23T12:37:18.928Z,51.46
2018-06-23T12:38:18.908Z,54.06
2018-06-23T12:39:18.923Z,54.16
2018-06-23T12:40:18.938Z,52.78
2018-06-23T12:41:18.952Z,54.74
2018-06-23T12:42:18.970Z,49.73
2018-06-23T12:43:18.982Z,50.49
2018-06-23T12:44:18.997Z,50.88
2018-06-23T12:45:19.003Z,53.48
2018-06-23T12:46:19.006Z,51.21
2018-06-23T12:47:19.036Z,53.53
2018-06-23T12:48:19.030Z,53.45
2018-06-23T12:49:19.036Z,54.80
2018-06-23T12:50:19.048Z,54.74
2018-06-23T12:51:19.053Z,54.71
2018-06-23T12:52:19.065Z,52.20
2018-06-23T12:53:19.070Z,54.68
2018-06-23T12:54:19.077Z,54.58
2018-06-23T12:55:19.079Z,55.35
2018-06-23T12:56:19.087Z,54.20
2018-06-23T12:57:19.089Z,54.20
2018-06-23T12:58:19.091Z,54.08
2018-06-23T12:59:19.097Z,54.17
2018-06-23T13:00:19.161Z,53.66
2018-06-23T13:01:19.108Z,55.30
2018-06-23T13:02:19.113Z,54.14
2018-06-23T13:03:19.112Z,53.57
2018-06-23T13:04:19.123Z,54.43
2018-06-23T13:05:19.127Z,54.53
2018-06-23T13:06:19.124Z,54.85
2018-06-23T13:07:19.126Z,53.96
2018-06-23T13:08:19.122Z,56.45
2018-06-23T13:09:19.129Z,54.82
2018-06-23T13:10:19.135Z,53.57
2018-06-23T13:11:19.134Z,54.02
2018-06-23T13:12:19.135Z,53.96
2018-06-23T13:13:19.138Z,51.45
2018-06-23T13:14:19.145Z,50.87
2018-06-23T13:15:19.136Z,55.33
2018-06-23T13:16:19.133Z,54.85
2018-06-23T13:17:19.136Z,55.81
2018-06-23T13:18:19.140Z,57.15
2018-06-23T13:19:19.140Z,56.80
2018-06-23T13:20:19.146Z,56.90
2018-06-23T13:21:19.138Z,54.10
2018-06-23T13:22:19.187Z,52.37
2018-06-23T13:23:19.138Z,54.20
2018-06-23T13:24:19.221Z,53.23
2018-06-23T13:25:19.132Z,53.43
2018-06-23T13:26:19.150Z,53.43
2018-06-23T13:27:19.154Z,52.11